Time;durP1;ratioP1;P1;durP2;ratioP2;P2;SDS_P1;SDS_P2;PMS_P1;PMS_P2;Temp;Humidity;BMP_temperature;BMP_pressure;BME280_temperature;BME280_humidity;BME280_pressure;Samples;Min_cycle;Max_cycle;Signal;HPM_P1;HPM_P2
2021/04/17 00:01:11;;;;;;;1.50;1.20;;;7.60;87.70;;;;;;4979630;28;20577;-79
2021/04/17 00:03:37;;;;;;;1.50;1.20;;;7.60;88.00;;;;;;4974961;28;20610;-80
2021/04/17 00:06:04;;;;;;;1.50;1.20;;;7.60;87.70;;;;;;4969315;28;20467;-79
2021/04/17 00:08:31;;;;;;;1.50;1.20;;;7.60;88.00;;;;;;4971861;28;20458;-78
2021/04/17 00:10:59;;;;;;;1.50;1.20;;;7.60;88.00;;;;;;4974689;28;20485;-78
2021/04/17 00:13:26;;;;;;;1.50;1.20;;;7.60;87.60;;;;;;4976042;28;20466;-79
2021/04/17 00:15:52;;;;;;;1.50;1.20;;;7.60;87.70;;;;;;4976620;28;20458;-79
2021/04/17 00:18:19;;;;;;;1.50;1.20;;;7.60;87.80;;;;;;4976785;28;20514;-79
2021/04/17 00:20:45;;;;;;;1.50;1.30;;;7.60;87.90;;;;;;4978053;28;20544;-80
2021/04/17 00:23:11;;;;;;;1.50;1.20;;;7.60;87.50;;;;;;4974115;28;21047;-78
2021/04/17 00:25:38;;;;;;;1.50;1.20;;;7.50;87.60;;;;;;4972485;28;20471;-77
2021/04/17 00:28:05;;;;;;;1.50;1.30;;;7.50;87.40;;;;;;4978659;28;20458;-78
2021/04/17 00:30:31;;;;;;;1.50;1.20;;;7.50;87.40;;;;;;4976390;28;20518;-81
2021/04/17 00:32:58;;;;;;;1.50;1.20;;;7.50;87.70;;;;;;4969870;28;20462;-79
2021/04/17 00:35:24;;;;;;;1.50;1.20;;;7.40;87.10;;;;;;4972482;28;20829;-79
2021/04/17 00:37:50;;;;;;;1.50;1.27;;;7.40;87.00;;;;;;4978737;28;20553;-80
2021/04/17 00:40:17;;;;;;;1.50;1.30;;;7.40;86.70;;;;;;4972940;28;20764;-81
2021/04/17 00:42:44;;;;;;;1.50;1.33;;;7.40;86.40;;;;;;4973816;28;20946;-79
2021/04/17 00:45:12;;;;;;;1.50;1.20;;;7.40;86.10;;;;;;4975011;28;20472;-79
2021/04/17 00:47:40;;;;;;;1.50;1.30;;;7.40;85.50;;;;;;4978123;28;20497;-79
2021/04/17 00:50:08;;;;;;;1.50;1.20;;;7.40;85.30;;;;;;4969218;28;20467;-80
2021/04/17 00:52:34;;;;;;;1.50;1.20;;;7.40;85.00;;;;;;4971714;28;20466;-79
2021/04/17 00:55:01;;;;;;;1.50;1.30;;;7.40;85.10;;;;;;4976452;28;20462;-81
2021/04/17 00:57:27;;;;;;;1.50;1.30;;;7.40;84.90;;;;;;4974736;28;20715;-78
2021/04/17 00:59:54;;;;;;;1.50;1.20;;;7.30;85.60;;;;;;4975019;28;20557;-78
2021/04/17 01:02:27;;;;;;;1.50;1.20;;;7.30;85.70;;;;;;4969520;28;20603;-80
2021/04/17 01:04:55;;;;;;;1.50;1.20;;;7.30;85.70;;;;;;4971632;28;20462;-80
2021/04/17 01:07:25;;;;;;;1.50;1.40;;;7.20;85.90;;;;;;4964548;28;20740;-81
2021/04/17 01:10:01;;;;;;;1.60;1.50;;;7.20;86.20;;;;;;4975171;28;20552;-81
2021/04/17 01:12:32;;;;;;;1.50;1.20;;;7.10;86.10;;;;;;4976100;28;20505;-80
2021/04/17 01:14:59;;;;;;;1.50;1.20;;;7.10;86.10;;;;;;4977638;28;20462;-80
2021/04/17 01:17:27;;;;;;;1.50;1.20;;;7.00;86.30;;;;;;4974593;28;20497;-80
2021/04/17 01:20:04;;;;;;;1.50;1.23;;;6.90;86.40;;;;;;4977363;28;20496;-78
2021/04/17 01:22:31;;;;;;;1.50;1.30;;;6.90;86.50;;;;;;4977557;28;20807;-79
2021/04/17 01:25:06;;;;;;;1.50;1.30;;;6.90;86.60;;;;;;4977857;28;20952;-79
2021/04/17 01:27:35;;;;;;;1.50;1.20;;;6.80;86.80;;;;;;4971938;28;20548;-78
2021/04/17 01:30:04;;;;;;;1.50;1.40;;;6.80;86.80;;;;;;4973608;28;20490;-79
2021/04/17 01:32:31;;;;;;;1.50;1.23;;;6.80;86.90;;;;;;4973526;28;20945;-81
2021/04/17 01:34:58;;;;;;;1.50;1.30;;;6.70;87.10;;;;;;4973920;28;20462;-78
2021/04/17 01:37:49;;;;;;;1.50;1.30;;;6.70;87.30;;;;;;4965256;28;20576;-79
2021/04/17 01:40:15;;;;;;;1.50;1.30;;;6.70;87.50;;;;;;4968990;28;20462;-81
2021/04/17 01:42:44;;;;;;;1.50;1.27;;;6.60;87.40;;;;;;4974257;28;20465;-78
2021/04/17 01:45:13;;;;;;;1.50;1.20;;;6.60;87.50;;;;;;4971070;28;21499;-79
2021/04/17 01:47:39;;;;;;;1.50;1.30;;;6.50;87.70;;;;;;4967303;28;20459;-78
2021/04/17 01:50:07;;;;;;;1.50;1.30;;;6.50;88.00;;;;;;4961498;28;21024;-80
2021/04/17 01:52:33;;;;;;;1.50;1.30;;;6.40;87.90;;;;;;4973575;28;20500;-80
2021/04/17 01:55:01;;;;;;;1.50;1.30;;;6.40;88.00;;;;;;4968711;28;20567;-80
2021/04/17 01:57:29;;;;;;;1.50;1.30;;;6.40;88.10;;;;;;4970445;28;20504;-79
2021/04/17 01:59:57;;;;;;;1.60;1.50;;;6.30;88.20;;;;;;4973855;28;20953;-80
2021/04/17 02:02:23;;;;;;;1.50;1.30;;;6.20;88.40;;;;;;4973815;28;20496;-78
2021/04/17 02:04:50;;;;;;;1.53;1.30;;;6.20;88.20;;;;;;4965822;28;20610;-79
2021/04/17 02:07:16;;;;;;;1.50;1.30;;;6.20;88.70;;;;;;4973908;28;20495;-79
2021/04/17 02:09:43;;;;;;;1.60;1.30;;;6.20;88.30;;;;;;4974442;28;20968;-79
2021/04/17 02:12:10;;;;;;;1.50;1.30;;;6.10;88.20;;;;;;4974238;28;20865;-80
2021/04/17 02:14:37;;;;;;;1.50;1.30;;;6.10;88.30;;;;;;4966938;28;20463;-80
2021/04/17 02:17:13;;;;;;;1.50;1.30;;;6.10;88.30;;;;;;4973892;28;20486;-80
2021/04/17 02:19:46;;;;;;;1.90;1.73;;;6.10;88.50;;;;;;4969604;28;21000;-79
2021/04/17 02:22:12;;;;;;;1.50;1.30;;;6.00;88.20;;;;;;4967411;28;20513;-79
2021/04/17 02:24:39;;;;;;;1.50;1.40;;;6.00;88.40;;;;;;4973116;28;20466;-79
2021/04/17 02:27:07;;;;;;;1.57;1.37;;;6.00;88.10;;;;;;4973344;28;20454;-79
2021/04/17 02:29:34;;;;;;;1.53;1.30;;;5.90;88.70;;;;;;4972226;28;20484;-79
2021/04/17 02:32:00;;;;;;;1.50;1.40;;;5.90;88.70;;;;;;4972429;28;20568;-80
2021/04/17 02:34:28;;;;;;;1.50;1.30;;;5.80;88.60;;;;;;4975617;28;20465;-80
2021/04/17 02:36:54;;;;;;;1.50;1.30;;;5.80;89.00;;;;;;4975836;28;20609;-80
2021/04/17 02:39:20;;;;;;;1.57;1.30;;;5.80;89.00;;;;;;4968081;28;20532;-79
2021/04/17 02:41:47;;;;;;;1.50;1.30;;;5.80;89.10;;;;;;4968259;28;20565;-80
2021/04/17 02:44:13;;;;;;;1.53;1.30;;;5.70;89.00;;;;;;4976751;28;20540;-80
2021/04/17 02:46:39;;;;;;;1.53;1.40;;;5.70;89.20;;;;;;4976843;28;20464;-78
2021/04/17 02:49:06;;;;;;;1.50;1.30;;;5.70;89.10;;;;;;4973216;28;20463;-79
2021/04/17 02:51:33;;;;;;;1.50;1.30;;;5.60;89.00;;;;;;4971928;28;20492;-79
2021/04/17 02:53:59;;;;;;;1.60;1.40;;;5.60;89.40;;;;;;4977006;28;20462;-80
2021/04/17 02:56:25;;;;;;;1.50;1.30;;;5.60;89.10;;;;;;4970183;28;20465;-79
2021/04/17 02:58:52;;;;;;;1.50;1.30;;;5.60;89.30;;;;;;4970061;28;20490;-80
2021/04/17 03:01:18;;;;;;;1.53;1.30;;;5.60;89.40;;;;;;4974292;28;20512;-79
2021/04/17 03:03:45;;;;;;;1.60;1.40;;;5.50;89.20;;;;;;4976821;28;20470;-78
2021/04/17 03:06:11;;;;;;;1.50;1.40;;;5.50;89.30;;;;;;4969553;28;20837;-80
2021/04/17 03:08:39;;;;;;;1.50;1.30;;;5.40;89.50;;;;;;4969071;28;20509;-80
2021/04/17 03:11:05;;;;;;;1.50;1.30;;;5.40;89.80;;;;;;4971063;28;20541;-79
2021/04/17 03:13:31;;;;;;;1.50;1.30;;;5.40;89.60;;;;;;4969009;28;20541;-80
2021/04/17 03:15:58;;;;;;;1.50;1.30;;;5.40;90.00;;;;;;4975892;28;20833;-79
2021/04/17 03:18:24;;;;;;;1.50;1.30;;;5.30;90.30;;;;;;4969837;28;20497;-78
2021/04/17 03:20:51;;;;;;;1.60;1.50;;;5.30;90.20;;;;;;4963019;28;20490;-79
2021/04/17 03:23:18;;;;;;;1.50;1.30;;;5.20;89.90;;;;;;4977377;28;20476;-79
2021/04/17 03:25:45;;;;;;;1.50;1.30;;;5.20;90.20;;;;;;4974544;28;20457;-80
2021/04/17 03:28:11;;;;;;;1.53;1.30;;;5.10;90.00;;;;;;4977081;28;20485;-79
2021/04/17 03:30:37;;;;;;;1.60;1.40;;;5.10;90.00;;;;;;4969728;28;20880;-80
2021/04/17 03:33:04;;;;;;;1.50;1.30;;;5.00;91.00;;;;;;4969897;28;20462;-79
2021/04/17 03:35:32;;;;;;;1.53;1.30;;;5.00;91.20;;;;;;4973807;28;20465;-78
2021/04/17 03:37:59;;;;;;;1.53;1.30;;;4.90;91.20;;;;;;4972110;28;20497;-79
2021/04/17 03:40:25;;;;;;;1.60;1.50;;;4.90;91.40;;;;;;4971561;28;20612;-79
2021/04/17 03:42:52;;;;;;;1.60;1.47;;;4.80;90.90;;;;;;4974890;28;20528;-79
2021/04/17 03:45:20;;;;;;;1.57;1.40;;;4.80;91.10;;;;;;4976926;28;20466;-79
2021/04/17 03:47:46;;;;;;;1.57;1.40;;;4.80;91.10;;;;;;4971038;28;20462;-81
2021/04/17 03:50:14;;;;;;;1.50;1.30;;;4.80;90.90;;;;;;4969618;28;20515;-80
2021/04/17 03:52:42;;;;;;;1.57;1.40;;;4.70;90.30;;;;;;4975045;28;20468;-80
2021/04/17 03:55:11;;;;;;;1.60;1.50;;;4.60;90.30;;;;;;4976886;28;20549;-78
2021/04/17 03:57:38;;;;;;;1.50;1.37;;;4.60;91.60;;;;;;4967618;28;20491;-79
2021/04/17 04:00:07;;;;;;;1.60;1.30;;;4.50;92.20;;;;;;4972746;28;20526;-79
2021/04/17 04:02:34;;;;;;;1.50;1.37;;;4.50;92.40;;;;;;4973712;28;20521;-79
2021/04/17 04:05:00;;;;;;;1.60;1.50;;;4.40;92.30;;;;;;4966062;28;20477;-79
2021/04/17 04:07:27;;;;;;;1.50;1.30;;;4.40;92.50;;;;;;4969613;28;20504;-78
2021/04/17 04:09:53;;;;;;;1.60;1.47;;;4.40;92.60;;;;;;4975185;28;21254;-78
2021/04/17 04:12:19;;;;;;;1.60;1.40;;;4.30;92.70;;;;;;4974815;28;20486;-80
2021/04/17 04:14:45;;;;;;;1.57;1.33;;;4.30;93.00;;;;;;4974701;28;20557;-79
2021/04/17 04:17:13;;;;;;;1.57;1.40;;;4.30;93.20;;;;;;4972589;28;20486;-78
2021/04/17 04:19:39;;;;;;;1.70;1.60;;;4.30;92.50;;;;;;4972114;28;20566;-77
2021/04/17 04:22:05;;;;;;;1.60;1.40;;;4.20;93.20;;;;;;4976051;28;20559;-78
2021/04/17 04:24:32;;;;;;;1.50;1.30;;;4.20;92.80;;;;;;4970046;28;20577;-79
2021/04/17 04:26:58;;;;;;;1.53;1.40;;;4.20;93.00;;;;;;4970368;28;21109;-77
2021/04/17 04:29:24;;;;;;;1.57;1.30;;;4.10;93.10;;;;;;4977128;28;20462;-78
2021/04/17 04:31:51;;;;;;;1.60;1.50;;;4.10;93.40;;;;;;4969323;28;20525;-79
2021/04/17 04:34:18;;;;;;;1.50;1.30;;;4.10;93.30;;;;;;4969377;28;20477;-80
2021/04/17 04:36:44;;;;;;;1.60;1.40;;;4.10;92.80;;;;;;4976102;28;20500;-78
2021/04/17 04:39:11;;;;;;;1.60;1.40;;;4.10;92.70;;;;;;4973327;28;20481;-78
2021/04/17 04:41:37;;;;;;;1.57;1.40;;;4.00;93.00;;;;;;4972695;28;20482;-78
2021/04/17 04:44:04;;;;;;;1.57;1.43;;;4.00;93.70;;;;;;4971974;28;20976;-79
2021/04/17 04:46:30;;;;;;;1.53;1.40;;;3.90;94.20;;;;;;4976090;28;20461;-78
2021/04/17 04:48:57;;;;;;;1.60;1.40;;;3.90;94.20;;;;;;4973096;28;20533;-78
2021/04/17 04:51:24;;;;;;;1.60;1.50;;;3.90;94.40;;;;;;4970662;28;20482;-78
2021/04/17 04:53:51;;;;;;;1.57;1.40;;;3.90;94.80;;;;;;4974857;28;20896;-76
2021/04/17 04:56:17;;;;;;;1.53;1.40;;;3.90;94.80;;;;;;4975926;28;20465;-80
2021/04/17 04:58:43;;;;;;;1.50;1.40;;;3.90;94.10;;;;;;4969546;28;20930;-79
2021/04/17 05:01:10;;;;;;;1.53;1.40;;;3.90;94.50;;;;;;4969764;28;20481;-77
2021/04/17 05:03:36;;;;;;;1.50;1.40;;;3.90;94.40;;;;;;4971974;28;20470;-80
2021/04/17 05:06:02;;;;;;;1.60;1.40;;;3.90;94.50;;;;;;4975564;28;20484;-78
2021/04/17 05:08:29;;;;;;;1.60;1.50;;;3.90;95.00;;;;;;4977555;28;20537;-79
2021/04/17 05:10:56;;;;;;;1.60;1.50;;;3.90;95.30;;;;;;4972313;28;20652;-79
2021/04/17 05:13:22;;;;;;;1.60;1.40;;;3.90;95.40;;;;;;4971944;28;20463;-77
2021/04/17 05:15:48;;;;;;;1.50;1.40;;;3.90;95.50;;;;;;4970252;28;20469;-79
2021/04/17 05:18:15;;;;;;;1.50;1.37;;;3.90;95.30;;;;;;4973489;28;20481;-78
2021/04/17 05:20:41;;;;;;;1.60;1.40;;;3.90;95.40;;;;;;4973564;28;20489;-77
2021/04/17 05:23:07;;;;;;;1.50;1.40;;;4.00;95.10;;;;;;4977695;28;20462;-78
2021/04/17 05:25:34;;;;;;;1.67;1.57;;;4.00;95.30;;;;;;4969602;28;20977;-78
2021/04/17 05:28:00;;;;;;;1.60;1.40;;;4.00;95.70;;;;;;4971328;28;20455;-78
2021/04/17 05:30:27;;;;;;;1.57;1.40;;;4.00;96.00;;;;;;4975098;28;20508;-80
2021/04/17 05:32:54;;;;;;;1.60;1.40;;;4.00;96.30;;;;;;4966622;28;20901;-79
2021/04/17 05:35:20;;;;;;;1.50;1.30;;;4.10;96.30;;;;;;4969895;28;20474;-76
2021/04/17 05:37:46;;;;;;;1.60;1.50;;;4.10;96.30;;;;;;4974624;28;20488;-78
2021/04/17 05:40:14;;;;;;;1.57;1.40;;;4.20;96.90;;;;;;4973364;28;20524;-79
2021/04/17 05:42:41;;;;;;;1.60;1.40;;;4.40;97.20;;;;;;4968381;28;20473;-77
2021/04/17 05:45:08;;;;;;;1.60;1.43;;;4.60;97.90;;;;;;4963557;28;20479;-77
2021/04/17 05:47:35;;;;;;;1.57;1.40;;;4.80;96.50;;;;;;4960688;28;20458;-80
2021/04/17 05:50:01;;;;;;;1.60;1.30;;;5.10;96.50;;;;;;4970372;28;20462;-79
2021/04/17 05:52:27;;;;;;;1.53;1.30;;;5.30;95.40;;;;;;4965832;28;20492;-77
2021/04/17 05:54:54;;;;;;;1.60;1.40;;;5.50;95.40;;;;;;4970407;28;20961;-78
2021/04/17 05:57:20;;;;;;;1.60;1.50;;;5.70;94.70;;;;;;4971846;28;20508;-80
2021/04/17 05:59:47;;;;;;;1.50;1.30;;;6.00;93.90;;;;;;4971064;28;21536;-79
2021/04/17 06:02:14;;;;;;;1.60;1.40;;;6.30;93.50;;;;;;4967681;28;21016;-77
2021/04/17 06:04:40;;;;;;;1.53;1.30;;;6.40;92.80;;;;;;4973582;28;20872;-79
2021/04/17 06:07:06;;;;;;;1.50;1.27;;;6.70;92.00;;;;;;4977187;28;21050;-77
2021/04/17 06:09:33;;;;;;;1.60;1.50;;;6.80;92.20;;;;;;4969950;28;20469;-80
2021/04/17 06:11:59;;;;;;;1.57;1.40;;;7.10;90.90;;;;;;4971603;28;20492;-79
2021/04/17 06:14:25;;;;;;;1.50;1.20;;;7.20;89.90;;;;;;4968235;28;20961;-78
2021/04/17 06:16:53;;;;;;;1.53;1.30;;;7.20;89.10;;;;;;4966517;28;20474;-79
2021/04/17 06:19:19;;;;;;;1.50;1.20;;;7.30;89.00;;;;;;4970431;28;20540;-78
2021/04/17 06:21:45;;;;;;;1.53;1.20;;;7.30;88.90;;;;;;4975355;28;20521;-78
2021/04/17 06:24:12;;;;;;;1.50;1.20;;;7.30;89.20;;;;;;4970385;28;20508;-77
2021/04/17 06:26:38;;;;;;;1.60;1.50;;;7.30;89.20;;;;;;4971970;28;20476;-80
2021/04/17 06:29:05;;;;;;;1.50;1.30;;;7.20;89.40;;;;;;4969107;28;20816;-79
2021/04/17 06:31:31;;;;;;;1.50;1.30;;;7.20;89.30;;;;;;4972495;28;20584;-80
2021/04/17 06:33:59;;;;;;;1.50;1.20;;;7.20;89.10;;;;;;4974340;28;20508;-77
2021/04/17 06:36:25;;;;;;;1.53;1.30;;;7.10;88.60;;;;;;4975610;28;20476;-78
2021/04/17 06:38:52;;;;;;;1.60;1.40;;;7.20;89.10;;;;;;4967019;28;20932;-80
2021/04/17 06:41:20;;;;;;;1.50;1.27;;;7.30;88.40;;;;;;4974691;28;20524;-82
2021/04/17 06:43:47;;;;;;;1.50;1.20;;;7.20;88.60;;;;;;4980583;28;20553;-80
2021/04/17 06:46:14;;;;;;;1.50;1.20;;;7.30;88.40;;;;;;4975469;28;20839;-79
2021/04/17 06:48:41;;;;;;;1.50;1.23;;;7.30;88.50;;;;;;4972663;28;20457;-80
2021/04/17 06:51:14;;;;;;;1.50;1.30;;;7.40;88.20;;;;;;4975133;28;20482;-78
2021/04/17 06:53:41;;;;;;;1.53;1.30;;;7.60;88.30;;;;;;4975498;28;20468;-78
2021/04/17 06:56:10;;;;;;;1.50;1.20;;;7.70;87.90;;;;;;4972227;28;20761;-81
2021/04/17 06:58:39;;;;;;;1.50;1.20;;;7.90;87.50;;;;;;4976753;28;20491;-81
2021/04/17 07:01:06;;;;;;;1.50;1.20;;;8.20;87.10;;;;;;4978596;28;20488;-80
2021/04/17 07:03:33;;;;;;;1.50;1.20;;;8.40;86.00;;;;;;4972544;28;20497;-81
2021/04/17 07:06:00;;;;;;;1.50;1.17;;;8.80;85.60;;;;;;4975871;28;20473;-79
2021/04/17 07:08:33;;;;;;;1.50;1.20;;;9.00;84.30;;;;;;4980347;28;20854;-81
2021/04/17 07:11:00;;;;;;;1.50;1.20;;;9.20;84.30;;;;;;4977262;28;20484;-79
2021/04/17 07:13:26;;;;;;;1.50;1.10;;;9.40;82.90;;;;;;4970571;28;20553;-80
2021/04/17 07:15:54;;;;;;;1.50;1.10;;;9.70;83.10;;;;;;4965748;28;20517;-81
2021/04/17 07:18:31;;;;;;;1.50;1.00;;;10.00;82.40;;;;;;4977543;28;20485;-77
2021/04/17 07:20:59;;;;;;;1.50;1.17;;;10.20;81.40;;;;;;4986612;23;20517;-80
2021/04/17 07:23:40;;;;;;;1.50;1.10;;;10.30;79.90;;;;;;5011971;28;21029;-80
2021/04/17 07:26:08;;;;;;;1.50;1.10;;;10.40;79.00;;;;;;5007453;28;20464;-79
2021/04/17 07:28:35;;;;;;;1.50;1.20;;;10.60;78.70;;;;;;5013015;28;20845;-79
2021/04/17 07:31:02;;;;;;;1.50;1.10;;;10.70;78.90;;;;;;5012676;28;21013;-78
2021/04/17 07:33:29;;;;;;;1.50;1.10;;;10.80;78.40;;;;;;5008218;28;20464;-80
2021/04/17 07:35:56;;;;;;;1.50;1.10;;;10.90;78.50;;;;;;4996966;28;20478;-79
2021/04/17 07:38:24;;;;;;;1.50;1.10;;;10.90;78.50;;;;;;5012224;28;20495;-78
2021/04/17 07:41:08;;;;;;;1.50;1.07;;;11.00;79.40;;;;;;5011294;28;20853;-78
2021/04/17 07:43:45;;;;;;;1.50;1.10;;;11.30;79.00;;;;;;5003057;28;20480;-81
2021/04/17 07:46:12;;;;;;;3.00;1.20;;;11.50;76.10;;;;;;5009777;28;20526;-80
2021/04/17 07:48:38;;;;;;;1.50;1.00;;;11.60;77.60;;;;;;5011864;28;20473;-81
2021/04/17 07:51:07;;;;;;;1.50;1.00;;;11.70;77.90;;;;;;5017758;28;20546;-78
2021/04/17 07:53:41;;;;;;;1.50;1.00;;;11.90;78.30;;;;;;5017605;28;20503;-80
2021/04/17 07:56:27;;;;;;;1.50;1.00;;;12.10;77.00;;;;;;5014861;28;20515;-80
2021/04/17 07:58:56;;;;;;;1.50;1.00;;;12.30;75.50;;;;;;5013745;28;20716;-79
2021/04/17 08:01:24;;;;;;;1.50;1.00;;;12.40;75.60;;;;;;5008599;28;21085;-81
2021/04/17 08:03:55;;;;;;;1.50;1.00;;;12.60;74.90;;;;;;5007683;28;20456;-80
2021/04/17 08:06:22;;;;;;;1.50;1.00;;;12.70;75.60;;;;;;5003131;28;20464;-79
2021/04/17 08:08:49;;;;;;;1.50;1.00;;;12.90;74.10;;;;;;5008828;28;20816;-82
2021/04/17 08:11:18;;;;;;;1.50;1.00;;;13.00;75.20;;;;;;5005426;28;20484;-79
2021/04/17 08:13:45;;;;;;;1.50;1.00;;;13.10;74.20;;;;;;5010758;28;20456;-81
2021/04/17 08:16:11;;;;;;;1.50;1.00;;;13.20;73.20;;;;;;5011463;28;20518;-81
2021/04/17 08:18:39;;;;;;;1.50;1.00;;;13.40;72.60;;;;;;5012424;28;20499;-82
2021/04/17 08:21:06;;;;;;;1.50;0.90;;;13.50;72.20;;;;;;5014396;28;20571;-80
2021/04/17 08:23:33;;;;;;;1.50;1.20;;;13.70;71.70;;;;;;5009188;28;20476;-81
2021/04/17 08:26:01;;;;;;;1.50;1.00;;;13.70;71.50;;;;;;5012840;28;20460;-82
2021/04/17 08:28:28;;;;;;;1.50;1.00;;;13.80;70.80;;;;;;5014633;28;20467;-82
2021/04/17 08:31:27;;;;;;;1.50;1.00;;;13.90;71.10;;;;;;5007295;28;20483;-81
2021/04/17 08:34:15;;;;;;;1.50;1.00;;;13.90;70.10;;;;;;5004921;28;21338;-80
2021/04/17 08:36:46;;;;;;;1.50;1.00;;;13.90;68.90;;;;;;5008723;28;20471;-82
2021/04/17 08:39:48;;;;;;;1.50;1.00;;;14.00;69.60;;;;;;5008638;28;20516;-82
2021/04/17 08:42:21;;;;;;;1.43;0.90;;;14.00;69.60;;;;;;5013789;28;20522;-81
2021/04/17 08:44:48;;;;;;;1.40;0.90;;;14.10;70.00;;;;;;5001962;28;20546;-81
2021/04/17 08:47:47;;;;;;;1.50;0.90;;;14.20;70.10;;;;;;5008665;28;20484;-83
2021/04/17 08:50:31;;;;;;;1.50;0.90;;;14.30;69.20;;;;;;5008152;28;20552;-80
2021/04/17 08:53:03;;;;;;;1.47;0.90;;;14.50;68.50;;;;;;4999379;28;20567;-81
2021/04/17 08:55:44;;;;;;;1.43;0.90;;;14.60;69.00;;;;;;5009443;28;20472;-82
2021/04/17 08:58:16;;;;;;;1.50;1.00;;;14.70;67.80;;;;;;5001829;28;20496;-81
2021/04/17 09:01:04;;;;;;;1.50;1.00;;;14.60;67.50;;;;;;5003834;28;20495;-80
2021/04/17 09:03:40;;;;;;;1.50;1.00;;;14.60;68.80;;;;;;5005640;28;20495;-81
2021/04/17 09:06:08;;;;;;;1.50;1.00;;;14.70;68.20;;;;;;5005270;28;20508;-79
2021/04/17 09:08:37;;;;;;;1.50;0.93;;;14.90;68.10;;;;;;5000076;28;20460;-82
2021/04/17 09:11:34;;;;;;;1.50;1.00;;;15.00;66.90;;;;;;5000289;28;20480;-80
2021/04/17 09:14:01;;;;;;;1.50;0.90;;;15.00;66.40;;;;;;5000692;28;20507;-80
2021/04/17 09:16:37;;;;;;;1.50;1.00;;;15.00;66.30;;;;;;5000438;28;20473;-80
2021/04/17 09:19:07;;;;;;;1.50;1.00;;;14.90;67.00;;;;;;5002132;28;20662;-81
2021/04/17 09:21:40;;;;;;;1.50;1.00;;;15.00;67.00;;;;;;5004345;28;20504;-81
2021/04/17 09:24:25;;;;;;;1.47;0.90;;;15.10;67.00;;;;;;5005153;28;20562;-80
2021/04/17 09:26:52;;;;;;;1.50;0.90;;;15.20;67.20;;;;;;5010218;28;20467;-81
2021/04/17 09:29:26;;;;;;;1.50;0.90;;;15.30;67.40;;;;;;4998964;28;20507;-82
2021/04/17 09:31:57;;;;;;;1.50;1.00;;;15.50;66.50;;;;;;5008874;28;20925;-80
2021/04/17 09:34:25;;;;;;;1.47;0.90;;;15.50;66.50;;;;;;4997850;28;20568;-79
2021/04/17 09:36:51;;;;;;;1.47;0.90;;;15.40;65.70;;;;;;5005193;28;20467;-80
2021/04/17 09:39:26;;;;;;;1.50;0.90;;;15.50;67.00;;;;;;5009607;28;20484;-82
2021/04/17 09:41:55;;;;;;;1.50;0.97;;;15.60;65.80;;;;;;5004239;28;20544;-78
2021/04/17 09:44:22;;;;;;;1.47;1.00;;;15.80;65.70;;;;;;4992468;28;20475;-80
2021/04/17 09:47:05;;;;;;;1.50;0.90;;;15.90;65.50;;;;;;5008300;28;20468;-81
2021/04/17 09:49:43;;;;;;;1.50;1.00;;;16.00;64.20;;;;;;5001820;28;20834;-77
2021/04/17 09:52:16;;;;;;;1.47;0.93;;;15.90;64.70;;;;;;5000102;28;20515;-81
2021/04/17 09:54:44;;;;;;;1.47;0.97;;;15.80;64.40;;;;;;4998875;28;21245;-81
2021/04/17 09:57:10;;;;;;;1.50;1.00;;;15.70;65.00;;;;;;5009434;28;20479;-83
2021/04/17 09:59:37;;;;;;;1.47;0.90;;;15.70;66.40;;;;;;5008938;28;20904;-81
2021/04/17 10:02:05;;;;;;;1.50;0.90;;;15.60;65.60;;;;;;5006697;28;20491;-81
2021/04/17 10:04:52;;;;;;;1.50;1.00;;;15.50;65.90;;;;;;4999642;28;20471;-81
2021/04/17 10:07:19;;;;;;;1.50;0.90;;;15.60;66.50;;;;;;5007001;28;20460;-81
2021/04/17 10:10:02;;;;;;;1.50;0.90;;;15.60;66.40;;;;;;5006328;28;20488;-81
2021/04/17 10:12:28;;;;;;;1.50;0.90;;;15.60;66.60;;;;;;5001861;28;21068;-80
2021/04/17 10:15:14;;;;;;;1.50;1.00;;;15.60;66.70;;;;;;5004330;28;20460;-80
2021/04/17 10:17:41;;;;;;;1.47;0.97;;;15.60;66.30;;;;;;5004482;28;20523;-80
2021/04/17 10:20:10;;;;;;;1.47;0.90;;;15.40;64.20;;;;;;4996982;28;20564;-78
2021/04/17 10:22:37;;;;;;;1.50;1.00;;;15.10;63.80;;;;;;4997807;28;20485;-79
2021/04/17 10:25:07;;;;;;;1.47;0.90;;;14.90;63.10;;;;;;4998083;28;20477;-80
2021/04/17 10:27:36;;;;;;;1.50;1.00;;;14.70;64.50;;;;;;5006841;28;20523;-80
2021/04/17 10:30:15;;;;;;;1.60;1.30;;;14.50;64.90;;;;;;5004932;28;20468;-79
2021/04/17 10:32:41;;;;;;;1.50;1.00;;;14.50;65.70;;;;;;4997040;28;20560;-78
2021/04/17 10:35:11;;;;;;;1.47;0.90;;;14.50;66.10;;;;;;4999543;28;20468;-78
2021/04/17 10:37:44;;;;;;;1.43;0.90;;;14.50;66.20;;;;;;5004572;28;20460;-80
2021/04/17 10:40:13;;;;;;;1.47;0.90;;;14.50;66.60;;;;;;5009496;28;20499;-79
2021/04/17 10:42:46;;;;;;;1.50;0.90;;;14.70;65.80;;;;;;5010018;28;20472;-78
2021/04/17 10:45:14;;;;;;;1.47;0.90;;;14.80;66.30;;;;;;5007835;28;20468;-78
2021/04/17 10:47:40;;;;;;;1.60;1.20;;;14.90;66.30;;;;;;5002922;28;20468;-79
2021/04/17 10:50:20;;;;;;;1.43;1.00;;;15.00;66.30;;;;;;5011221;28;20464;-79
2021/04/17 10:52:57;;;;;;;1.43;0.90;;;15.00;64.00;;;;;;5010355;28;20468;-81
2021/04/17 10:55:34;;;;;;;1.47;0.90;;;14.90;63.30;;;;;;5007901;28;20480;-77
2021/04/17 10:58:01;;;;;;;1.47;1.00;;;15.10;64.50;;;;;;5009047;28;20479;-79
2021/04/17 11:00:28;;;;;;;1.40;0.90;;;15.10;64.60;;;;;;5014130;28;20471;-79
2021/04/17 11:02:55;;;;;;;1.43;0.93;;;15.40;64.20;;;;;;5010170;28;20535;-80
2021/04/17 11:05:22;;;;;;;1.50;0.90;;;15.60;63.90;;;;;;5005987;28;20480;-78
2021/04/17 11:07:58;;;;;;;1.50;0.90;;;15.80;63.30;;;;;;5012191;28;20460;-79
2021/04/17 11:10:30;;;;;;;1.50;1.00;;;16.10;64.50;;;;;;5009351;28;20479;-78
2021/04/17 11:12:56;;;;;;;1.47;0.90;;;16.40;63.20;;;;;;5002636;28;20479;-79
2021/04/17 11:15:26;;;;;;;1.50;1.00;;;16.70;64.60;;;;;;5009971;28;20540;-78
2021/04/17 11:18:12;;;;;;;1.50;0.90;;;16.80;61.50;;;;;;5013484;28;20484;-79
2021/04/17 11:20:52;;;;;;;1.50;1.00;;;16.80;61.10;;;;;;4997053;28;20542;-79
2021/04/17 11:23:32;;;;;;;1.50;0.90;;;16.80;60.90;;;;;;5005109;28;20887;-79
2021/04/17 11:25:59;;;;;;;1.50;0.90;;;16.70;60.40;;;;;;5005336;28;21023;-78
2021/04/17 11:28:27;;;;;;;1.50;0.90;;;16.40;60.20;;;;;;5009197;28;20571;-78
2021/04/17 11:30:54;;;;;;;1.50;0.93;;;16.10;63.30;;;;;;4994947;28;20507;-78
2021/04/17 11:33:20;;;;;;;1.50;1.00;;;16.00;62.80;;;;;;4999208;28;20465;-77
2021/04/17 11:35:48;;;;;;;1.47;0.93;;;15.90;62.50;;;;;;5002558;28;20925;-80
2021/04/17 11:38:14;;;;;;;1.43;0.90;;;15.70;62.90;;;;;;5009729;28;20488;-79
2021/04/17 11:40:40;;;;;;;1.50;0.90;;;15.70;63.40;;;;;;5012089;28;20484;-80
2021/04/17 11:43:07;;;;;;;1.50;0.90;;;15.70;63.20;;;;;;5008481;28;20468;-80
2021/04/17 11:45:33;;;;;;;1.50;1.00;;;15.60;63.10;;;;;;5006802;28;20467;-79
2021/04/17 11:47:59;;;;;;;1.50;0.90;;;15.50;64.50;;;;;;5010153;28;20547;-77
2021/04/17 11:50:26;;;;;;;1.50;0.90;;;15.50;63.60;;;;;;5005611;28;20479;-81
2021/04/17 11:52:53;;;;;;;1.50;1.00;;;15.30;63.20;;;;;;5008446;28;20468;-79
2021/04/17 11:55:19;;;;;;;1.47;1.00;;;15.30;64.40;;;;;;5006894;28;20460;-78
2021/04/17 11:57:46;;;;;;;1.47;0.90;;;15.40;64.60;;;;;;5007113;28;20528;-81
2021/04/17 12:00:13;;;;;;;1.50;0.90;;;15.50;63.80;;;;;;5005234;28;20510;-80
2021/04/17 12:02:39;;;;;;;1.50;0.90;;;15.50;64.90;;;;;;5001996;28;20559;-76
2021/04/17 12:05:07;;;;;;;1.47;0.97;;;15.50;64.10;;;;;;4997654;28;20472;-77
2021/04/17 12:07:33;;;;;;;1.47;0.90;;;15.30;64.00;;;;;;4998783;28;20472;-79
2021/04/17 12:10:00;;;;;;;1.47;0.90;;;15.30;65.50;;;;;;5007666;28;20543;-78
2021/04/17 12:12:28;;;;;;;1.50;0.90;;;15.40;63.60;;;;;;5002646;28;20483;-79
2021/04/17 12:14:54;;;;;;;1.50;0.90;;;15.40;64.50;;;;;;5004480;28;20683;-79
2021/04/17 12:17:21;;;;;;;1.50;1.00;;;15.50;63.90;;;;;;5004946;28;20911;-78
2021/04/17 12:19:47;;;;;;;1.43;0.90;;;15.40;63.90;;;;;;5008627;28;20518;-79
2021/04/17 12:22:13;;;;;;;1.50;1.00;;;15.50;64.40;;;;;;5004929;28;21231;-79
2021/04/17 12:24:40;;;;;;;1.50;1.00;;;15.50;64.60;;;;;;5002883;28;20465;-77
2021/04/17 12:27:07;;;;;;;1.50;0.93;;;15.50;64.70;;;;;;5007154;28;20501;-80
2021/04/17 12:29:33;;;;;;;1.43;0.90;;;15.50;63.20;;;;;;5008360;28;20456;-79
2021/04/17 12:32:00;;;;;;;1.47;0.90;;;15.40;63.50;;;;;;5005341;28;20492;-78
2021/04/17 12:34:26;;;;;;;1.50;1.00;;;15.30;64.20;;;;;;5006999;28;21090;-79
2021/04/17 12:36:53;;;;;;;1.47;1.00;;;15.20;63.80;;;;;;5000665;28;20469;-78
2021/04/17 12:39:19;;;;;;;1.40;0.90;;;15.20;64.40;;;;;;5002571;28;20484;-81
2021/04/17 12:41:45;;;;;;;1.47;1.00;;;15.20;64.40;;;;;;5007453;28;20499;-82
2021/04/17 12:44:13;;;;;;;1.50;1.00;;;15.30;65.20;;;;;;5008146;28;20472;-81
2021/04/17 12:46:40;;;;;;;1.50;1.00;;;15.40;65.10;;;;;;5009032;28;20968;-81
2021/04/17 12:49:06;;;;;;;1.50;1.10;;;15.50;65.20;;;;;;5001067;28;20463;-82
2021/04/17 12:51:33;;;;;;;1.50;1.00;;;15.60;65.00;;;;;;4997136;28;20491;-81
2021/04/17 12:53:59;;;;;;;1.47;1.00;;;15.50;64.50;;;;;;5004425;28;20527;-81
2021/04/17 12:56:26;;;;;;;1.50;0.90;;;15.50;64.80;;;;;;5005485;28;20478;-81
2021/04/17 12:58:53;;;;;;;1.50;1.00;;;15.20;64.70;;;;;;5007938;28;20552;-80
2021/04/17 13:01:21;;;;;;;1.50;1.00;;;15.00;65.70;;;;;;5011823;28;20491;-79